sensor_id;sensor_type;location;lat;lon;timestamp;temperature;humidity
47338;DHT22;33069;51.970;5.892;2022-10-17T00:02:17;13.80;88.10
47338;DHT22;33069;51.970;5.892;2022-10-17T00:04:43;14.00;88.10
47338;DHT22;33069;51.970;5.892;2022-10-17T00:07:08;13.80;87.80
47338;DHT22;33069;51.970;5.892;2022-10-17T00:09:34;13.70;87.80
47338;DHT22;33069;51.970;5.892;2022-10-17T00:12:00;13.70;88.10
47338;DHT22;33069;51.970;5.892;2022-10-17T00:14:27;13.70;88.30
47338;DHT22;33069;51.970;5.892;2022-10-17T00:16:52;13.70;88.40
47338;DHT22;33069;51.970;5.892;2022-10-17T00:19:18;13.70;88.60
47338;DHT22;33069;51.970;5.892;2022-10-17T00:21:44;13.70;88.60
47338;DHT22;33069;51.970;5.892;2022-10-17T00:24:09;13.70;88.70
47338;DHT22;33069;51.970;5.892;2022-10-17T00:26:35;13.70;88.90
47338;DHT22;33069;51.970;5.892;2022-10-17T00:29:01;13.70;89.00
47338;DHT22;33069;51.970;5.892;2022-10-17T00:31:27;13.70;89.00
47338;DHT22;33069;51.970;5.892;2022-10-17T00:33:52;13.80;89.00
47338;DHT22;33069;51.970;5.892;2022-10-17T00:36:21;13.90;89.00
47338;DHT22;33069;51.970;5.892;2022-10-17T00:38:50;14.00;88.90
47338;DHT22;33069;51.970;5.892;2022-10-17T00:41:18;14.00;88.70
47338;DHT22;33069;51.970;5.892;2022-10-17T00:46:17;14.10;88.60
47338;DHT22;33069;51.970;5.892;2022-10-17T00:48:44;14.00;88.40
47338;DHT22;33069;51.970;5.892;2022-10-17T00:51:10;13.90;88.30
47338;DHT22;33069;51.970;5.892;2022-10-17T00:53:37;13.80;88.50
47338;DHT22;33069;51.970;5.892;2022-10-17T00:56:04;13.80;88.80
47338;DHT22;33069;51.970;5.892;2022-10-17T00:58:30;13.90;89.00
47338;DHT22;33069;51.970;5.892;2022-10-17T01:00:56;13.80;89.10
47338;DHT22;33069;51.970;5.892;2022-10-17T01:03:22;13.80;89.20
47338;DHT22;33069;51.970;5.892;2022-10-17T01:05:48;13.80;89.40
47338;DHT22;33069;51.970;5.892;2022-10-17T01:08:13;14.00;89.50
47338;DHT22;33069;51.970;5.892;2022-10-17T01:11:34;13.90;89.40
47338;DHT22;33069;51.970;5.892;2022-10-17T01:13:51;14.00;89.30
47338;DHT22;33069;51.970;5.892;2022-10-17T01:21:54;13.90;89.30
47338;DHT22;33069;51.970;5.892;2022-10-17T01:32:23;14.00;89.40
47338;DHT22;33069;51.970;5.892;2022-10-17T01:34:56;13.90;89.30
47338;DHT22;33069;51.970;5.892;2022-10-17T01:40:08;13.90;89.50
47338;DHT22;33069;51.970;5.892;2022-10-17T01:42:52;13.90;89.60
47338;DHT22;33069;51.970;5.892;2022-10-17T01:45:27;13.90;89.70
47338;DHT22;33069;51.970;5.892;2022-10-17T01:48:00;13.90;89.80
47338;DHT22;33069;51.970;5.892;2022-10-17T01:50:35;13.90;89.90
47338;DHT22;33069;51.970;5.892;2022-10-17T01:53:12;13.90;90.00
47338;DHT22;33069;51.970;5.892;2022-10-17T01:55:41;13.90;90.10
47338;DHT22;33069;51.970;5.892;2022-10-17T01:58:27;14.00;90.10
47338;DHT22;33069;51.970;5.892;2022-10-17T02:00:55;14.00;90.20
47338;DHT22;33069;51.970;5.892;2022-10-17T02:03:23;14.00;90.30
47338;DHT22;33069;51.970;5.892;2022-10-17T02:05:51;14.00;90.30
47338;DHT22;33069;51.970;5.892;2022-10-17T02:08:25;13.90;90.40
47338;DHT22;33069;51.970;5.892;2022-10-17T02:10:59;14.10;90.50
47338;DHT22;33069;51.970;5.892;2022-10-17T02:14:17;14.00;90.50
47338;DHT22;33069;51.970;5.892;2022-10-17T02:22:12;14.00;90.50
47338;DHT22;33069;51.970;5.892;2022-10-17T02:24:49;14.00;90.50
47338;DHT22;33069;51.970;5.892;2022-10-17T02:30:02;14.00;90.50
47338;DHT22;33069;51.970;5.892;2022-10-17T02:32:51;14.00;90.50
47338;DHT22;33069;51.970;5.892;2022-10-17T02:35:21;14.00;90.50
47338;DHT22;33069;51.970;5.892;2022-10-17T02:37:49;14.00;90.50
47338;DHT22;33069;51.970;5.892;2022-10-17T02:40:17;14.00;90.50
47338;DHT22;33069;51.970;5.892;2022-10-17T02:42:45;14.00;90.60
47338;DHT22;33069;51.970;5.892;2022-10-17T02:45:12;14.10;90.70
47338;DHT22;33069;51.970;5.892;2022-10-17T02:48:33;14.00;90.70
47338;DHT22;33069;51.970;5.892;2022-10-17T02:50:42;14.00;90.70
47338;DHT22;33069;51.970;5.892;2022-10-17T02:53:14;14.10;90.70
47338;DHT22;33069;51.970;5.892;2022-10-17T02:55:50;14.10;90.70
47338;DHT22;33069;51.970;5.892;2022-10-17T02:58:20;14.00;90.70
47338;DHT22;33069;51.970;5.892;2022-10-17T03:00:49;14.00;90.70
47338;DHT22;33069;51.970;5.892;2022-10-17T03:03:24;14.00;90.70
47338;DHT22;33069;51.970;5.892;2022-10-17T03:05:50;14.10;90.80
47338;DHT22;33069;51.970;5.892;2022-10-17T03:08:16;14.20;90.80
47338;DHT22;33069;51.970;5.892;2022-10-17T03:10:42;14.10;90.80
47338;DHT22;33069;51.970;5.892;2022-10-17T03:13:08;14.20;90.80
47338;DHT22;33069;51.970;5.892;2022-10-17T03:15:34;14.20;90.90
47338;DHT22;33069;51.970;5.892;2022-10-17T03:17:59;14.20;90.90
47338;DHT22;33069;51.970;5.892;2022-10-17T03:20:25;14.20;90.90
47338;DHT22;33069;51.970;5.892;2022-10-17T03:22:51;14.20;90.90
47338;DHT22;33069;51.970;5.892;2022-10-17T03:25:16;14.20;90.90
47338;DHT22;33069;51.970;5.892;2022-10-17T03:27:42;14.20;90.90
47338;DHT22;33069;51.970;5.892;2022-10-17T03:30:08;14.30;90.90
47338;DHT22;33069;51.970;5.892;2022-10-17T03:32:34;14.20;90.90
47338;DHT22;33069;51.970;5.892;2022-10-17T03:35:01;14.30;90.90
47338;DHT22;33069;51.970;5.892;2022-10-17T03:37:27;14.40;90.90
47338;DHT22;33069;51.970;5.892;2022-10-17T03:39:52;14.50;90.90
47338;DHT22;33069;51.970;5.892;2022-10-17T03:42:18;14.30;90.80
47338;DHT22;33069;51.970;5.892;2022-10-17T03:44:44;14.40;90.90
47338;DHT22;33069;51.970;5.892;2022-10-17T03:47:09;14.40;90.80
47338;DHT22;33069;51.970;5.892;2022-10-17T03:49:35;14.40;90.80
47338;DHT22;33069;51.970;5.892;2022-10-17T03:52:01;14.50;90.80
47338;DHT22;33069;51.970;5.892;2022-10-17T03:54:27;14.40;90.70
47338;DHT22;33069;51.970;5.892;2022-10-17T03:56:53;14.50;90.70
47338;DHT22;33069;51.970;5.892;2022-10-17T03:59:18;14.50;90.60
47338;DHT22;33069;51.970;5.892;2022-10-17T04:01:44;14.40;90.50
47338;DHT22;33069;51.970;5.892;2022-10-17T04:04:10;14.50;90.60
47338;DHT22;33069;51.970;5.892;2022-10-17T04:06:36;14.50;90.60
47338;DHT22;33069;51.970;5.892;2022-10-17T04:09:03;14.50;90.60
47338;DHT22;33069;51.970;5.892;2022-10-17T04:11:28;14.50;90.50
47338;DHT22;33069;51.970;5.892;2022-10-17T04:13:56;14.40;90.50
47338;DHT22;33069;51.970;5.892;2022-10-17T04:16:22;14.40;90.50
47338;DHT22;33069;51.970;5.892;2022-10-17T04:18:52;14.40;90.50
47338;DHT22;33069;51.970;5.892;2022-10-17T04:21:19;14.40;90.40
47338;DHT22;33069;51.970;5.892;2022-10-17T04:23:44;14.40;90.50
47338;DHT22;33069;51.970;5.892;2022-10-17T04:26:10;14.40;90.50
47338;DHT22;33069;51.970;5.892;2022-10-17T04:28:36;14.40;90.50
47338;DHT22;33069;51.970;5.892;2022-10-17T04:31:07;14.40;90.50
47338;DHT22;33069;51.970;5.892;2022-10-17T04:33:34;14.50;90.50
47338;DHT22;33069;51.970;5.892;2022-10-17T04:36:02;14.50;90.50
47338;DHT22;33069;51.970;5.892;2022-10-17T04:38:29;14.40;90.50
47338;DHT22;33069;51.970;5.892;2022-10-17T04:40:59;14.40;90.50
47338;DHT22;33069;51.970;5.892;2022-10-17T04:43:29;14.40;90.60
47338;DHT22;33069;51.970;5.892;2022-10-17T04:45:59;14.50;90.60
47338;DHT22;33069;51.970;5.892;2022-10-17T04:48:27;14.60;90.60
47338;DHT22;33069;51.970;5.892;2022-10-17T04:50:58;14.70;90.70
47338;DHT22;33069;51.970;5.892;2022-10-17T04:53:24;14.80;90.70
47338;DHT22;33069;51.970;5.892;2022-10-17T04:55:50;14.80;90.70
47338;DHT22;33069;51.970;5.892;2022-10-17T04:58:16;14.80;90.60
47338;DHT22;33069;51.970;5.892;2022-10-17T05:00:42;14.70;90.60
47338;DHT22;33069;51.970;5.892;2022-10-17T05:03:08;14.70;90.60
47338;DHT22;33069;51.970;5.892;2022-10-17T05:05:37;14.80;90.60
47338;DHT22;33069;51.970;5.892;2022-10-17T05:08:03;14.80;90.60
47338;DHT22;33069;51.970;5.892;2022-10-17T05:10:29;14.90;90.70
47338;DHT22;33069;51.970;5.892;2022-10-17T05:12:55;15.00;90.60
47338;DHT22;33069;51.970;5.892;2022-10-17T05:15:21;15.00;90.50
47338;DHT22;33069;51.970;5.892;2022-10-17T05:17:47;14.90;90.40
47338;DHT22;33069;51.970;5.892;2022-10-17T05:20:12;14.90;90.40
47338;DHT22;33069;51.970;5.892;2022-10-17T05:22:38;14.90;90.30
47338;DHT22;33069;51.970;5.892;2022-10-17T05:25:05;14.80;90.20
47338;DHT22;33069;51.970;5.892;2022-10-17T05:27:32;14.90;90.20
47338;DHT22;33069;51.970;5.892;2022-10-17T05:29:57;14.90;90.30
47338;DHT22;33069;51.970;5.892;2022-10-17T05:32:23;15.00;90.20
47338;DHT22;33069;51.970;5.892;2022-10-17T05:34:49;15.00;90.20
47338;DHT22;33069;51.970;5.892;2022-10-17T05:37:14;15.00;90.20
47338;DHT22;33069;51.970;5.892;2022-10-17T05:39:40;14.90;90.10
47338;DHT22;33069;51.970;5.892;2022-10-17T05:42:06;15.00;90.20
47338;DHT22;33069;51.970;5.892;2022-10-17T05:44:32;14.90;90.10
47338;DHT22;33069;51.970;5.892;2022-10-17T05:46:58;14.90;90.10
47338;DHT22;33069;51.970;5.892;2022-10-17T05:49:23;14.90;90.10
47338;DHT22;33069;51.970;5.892;2022-10-17T05:51:49;14.90;90.10
47338;DHT22;33069;51.970;5.892;2022-10-17T05:54:15;15.00;90.20
47338;DHT22;33069;51.970;5.892;2022-10-17T05:56:40;15.10;90.10
47338;DHT22;33069;51.970;5.892;2022-10-17T05:59:06;15.00;90.10
47338;DHT22;33069;51.970;5.892;2022-10-17T06:01:32;15.10;90.00
47338;DHT22;33069;51.970;5.892;2022-10-17T06:03:57;15.10;89.90
47338;DHT22;33069;51.970;5.892;2022-10-17T06:06:23;15.10;89.90
47338;DHT22;33069;51.970;5.892;2022-10-17T06:08:49;15.10;89.90
47338;DHT22;33069;51.970;5.892;2022-10-17T06:11:14;15.20;89.90
47338;DHT22;33069;51.970;5.892;2022-10-17T06:13:40;15.10;89.80
47338;DHT22;33069;51.970;5.892;2022-10-17T06:16:06;15.10;89.80
47338;DHT22;33069;51.970;5.892;2022-10-17T06:18:32;15.20;89.90
47338;DHT22;33069;51.970;5.892;2022-10-17T06:21:04;15.10;89.70
47338;DHT22;33069;51.970;5.892;2022-10-17T06:23:30;15.10;89.70
47338;DHT22;33069;51.970;5.892;2022-10-17T06:26:00;15.10;89.70
47338;DHT22;33069;51.970;5.892;2022-10-17T06:28:26;15.00;89.70
47338;DHT22;33069;51.970;5.892;2022-10-17T06:30:52;15.00;89.70
47338;DHT22;33069;51.970;5.892;2022-10-17T06:33:17;15.10;89.70
47338;DHT22;33069;51.970;5.892;2022-10-17T06:35:53;15.20;89.80
47338;DHT22;33069;51.970;5.892;2022-10-17T06:38:20;15.10;89.70
47338;DHT22;33069;51.970;5.892;2022-10-17T06:40:45;15.20;89.80
47338;DHT22;33069;51.970;5.892;2022-10-17T06:43:11;15.20;89.70
47338;DHT22;33069;51.970;5.892;2022-10-17T06:45:38;15.20;89.70
47338;DHT22;33069;51.970;5.892;2022-10-17T06:48:04;15.10;89.60
47338;DHT22;33069;51.970;5.892;2022-10-17T06:50:30;15.20;89.70
47338;DHT22;33069;51.970;5.892;2022-10-17T06:52:56;15.00;89.60
47338;DHT22;33069;51.970;5.892;2022-10-17T06:55:21;15.00;89.70
47338;DHT22;33069;51.970;5.892;2022-10-17T06:57:47;15.00;89.70
47338;DHT22;33069;51.970;5.892;2022-10-17T07:00:13;15.30;89.90
47338;DHT22;33069;51.970;5.892;2022-10-17T07:02:39;15.40;89.80
47338;DHT22;33069;51.970;5.892;2022-10-17T07:05:06;15.40;89.70
47338;DHT22;33069;51.970;5.892;2022-10-17T07:07:32;15.60;89.70
47338;DHT22;33069;51.970;5.892;2022-10-17T07:09:58;15.70;89.70
47338;DHT22;33069;51.970;5.892;2022-10-17T07:12:24;15.70;89.50
47338;DHT22;33069;51.970;5.892;2022-10-17T07:14:50;15.90;89.50
47338;DHT22;33069;51.970;5.892;2022-10-17T07:17:16;15.90;89.30
47338;DHT22;33069;51.970;5.892;2022-10-17T07:19:43;16.10;89.30
47338;DHT22;33069;51.970;5.892;2022-10-17T07:22:09;15.80;88.90
47338;DHT22;33069;51.970;5.892;2022-10-17T07:24:35;15.90;88.90
47338;DHT22;33069;51.970;5.892;2022-10-17T07:27:01;16.00;88.80
47338;DHT22;33069;51.970;5.892;2022-10-17T07:29:27;16.00;88.60
47338;DHT22;33069;51.970;5.892;2022-10-17T07:31:53;16.00;88.40
47338;DHT22;33069;51.970;5.892;2022-10-17T07:34:19;16.00;88.40
47338;DHT22;33069;51.970;5.892;2022-10-17T07:36:45;16.20;88.60
47338;DHT22;33069;51.970;5.892;2022-10-17T07:39:11;16.30;88.40
47338;DHT22;33069;51.970;5.892;2022-10-17T07:41:37;16.50;88.20
47338;DHT22;33069;51.970;5.892;2022-10-17T07:44:03;16.40;88.00
47338;DHT22;33069;51.970;5.892;2022-10-17T07:46:28;16.40;87.90
47338;DHT22;33069;51.970;5.892;2022-10-17T07:48:54;16.50;87.80
47338;DHT22;33069;51.970;5.892;2022-10-17T07:51:20;16.70;87.70
47338;DHT22;33069;51.970;5.892;2022-10-17T07:53:46;16.80;87.50
47338;DHT22;33069;51.970;5.892;2022-10-17T07:56:12;16.80;87.20
47338;DHT22;33069;51.970;5.892;2022-10-17T07:58:38;16.80;87.00
47338;DHT22;33069;51.970;5.892;2022-10-17T08:01:07;16.80;87.00
47338;DHT22;33069;51.970;5.892;2022-10-17T08:03:33;16.90;86.60
47338;DHT22;33069;51.970;5.892;2022-10-17T08:06:00;16.90;86.50
47338;DHT22;33069;51.970;5.892;2022-10-17T08:08:27;16.90;86.30
47338;DHT22;33069;51.970;5.892;2022-10-17T08:10:54;16.90;86.10
47338;DHT22;33069;51.970;5.892;2022-10-17T08:13:21;17.00;86.10
47338;DHT22;33069;51.970;5.892;2022-10-17T08:15:47;17.20;86.00
47338;DHT22;33069;51.970;5.892;2022-10-17T08:18:14;17.40;85.50
47338;DHT22;33069;51.970;5.892;2022-10-17T08:20:41;17.40;84.90
47338;DHT22;33069;51.970;5.892;2022-10-17T08:23:06;17.30;84.70
47338;DHT22;33069;51.970;5.892;2022-10-17T08:25:32;17.50;85.10
47338;DHT22;33069;51.970;5.892;2022-10-17T08:27:58;17.50;85.40
47338;DHT22;33069;51.970;5.892;2022-10-17T08:30:24;17.20;85.60
47338;DHT22;33069;51.970;5.892;2022-10-17T08:32:50;17.00;86.80
47338;DHT22;33069;51.970;5.892;2022-10-17T08:35:16;16.80;87.20
47338;DHT22;33069;51.970;5.892;2022-10-17T08:37:42;16.80;87.80
47338;DHT22;33069;51.970;5.892;2022-10-17T08:40:16;16.90;88.50
47338;DHT22;33069;51.970;5.892;2022-10-17T08:45:47;16.70;88.30
47338;DHT22;33069;51.970;5.892;2022-10-17T08:48:19;16.70;88.70
47338;DHT22;33069;51.970;5.892;2022-10-17T08:55:55;16.80;89.80
47338;DHT22;33069;51.970;5.892;2022-10-17T08:58:28;16.70;89.70
47338;DHT22;33069;51.970;5.892;2022-10-17T09:01:02;16.70;90.00
47338;DHT22;33069;51.970;5.892;2022-10-17T09:20:14;16.80;91.00
47338;DHT22;33069;51.970;5.892;2022-10-17T09:25:21;16.60;90.70
47338;DHT22;33069;51.970;5.892;2022-10-17T09:30:49;16.60;90.90
47338;DHT22;33069;51.970;5.892;2022-10-17T09:33:20;16.50;91.00
47338;DHT22;33069;51.970;5.892;2022-10-17T09:35:49;16.70;91.20
47338;DHT22;33069;51.970;5.892;2022-10-17T09:38:19;16.80;91.20
47338;DHT22;33069;51.970;5.892;2022-10-17T09:40:50;16.80;91.20
47338;DHT22;33069;51.970;5.892;2022-10-17T09:43:18;16.70;91.10
47338;DHT22;33069;51.970;5.892;2022-10-17T09:46:07;16.80;91.10
47338;DHT22;33069;51.970;5.892;2022-10-17T09:48:50;16.80;91.10
47338;DHT22;33069;51.970;5.892;2022-10-17T09:51:17;16.60;90.90
47338;DHT22;33069;51.970;5.892;2022-10-17T09:53:47;16.70;91.00
47338;DHT22;33069;51.970;5.892;2022-10-17T09:56:16;16.80;91.10
47338;DHT22;33069;51.970;5.892;2022-10-17T10:01:22;16.60;91.20
47338;DHT22;33069;51.970;5.892;2022-10-17T10:04:08;16.70;91.30
47338;DHT22;33069;51.970;5.892;2022-10-17T10:06:34;16.60;91.30
47338;DHT22;33069;51.970;5.892;2022-10-17T10:09:00;16.60;91.30
47338;DHT22;33069;51.970;5.892;2022-10-17T10:11:50;16.50;91.40
47338;DHT22;33069;51.970;5.892;2022-10-17T10:14:34;16.60;91.40
47338;DHT22;33069;51.970;5.892;2022-10-17T10:17:02;16.70;91.50
47338;DHT22;33069;51.970;5.892;2022-10-17T10:19:34;16.80;91.60
47338;DHT22;33069;51.970;5.892;2022-10-17T10:22:01;16.90;91.60
47338;DHT22;33069;51.970;5.892;2022-10-17T10:24:27;17.00;91.70
47338;DHT22;33069;51.970;5.892;2022-10-17T10:26:55;16.70;91.50
47338;DHT22;33069;51.970;5.892;2022-10-17T10:29:36;16.60;91.50
47338;DHT22;33069;51.970;5.892;2022-10-17T10:34:37;16.60;91.60
47338;DHT22;33069;51.970;5.892;2022-10-17T10:37:22;16.50;91.60
47338;DHT22;33069;51.970;5.892;2022-10-17T10:39:52;16.70;91.70
47338;DHT22;33069;51.970;5.892;2022-10-17T10:42:39;16.70;91.70
47338;DHT22;33069;51.970;5.892;2022-10-17T10:45:18;16.70;91.70
47338;DHT22;33069;51.970;5.892;2022-10-17T10:48:16;16.70;91.70
47338;DHT22;33069;51.970;5.892;2022-10-17T10:50:46;16.70;91.70
47338;DHT22;33069;51.970;5.892;2022-10-17T10:53:26;16.80;91.80
47338;DHT22;33069;51.970;5.892;2022-10-17T10:56:15;16.90;91.80
47338;DHT22;33069;51.970;5.892;2022-10-17T10:58:53;16.90;91.80
47338;DHT22;33069;51.970;5.892;2022-10-17T11:07:11;17.30;91.80
47338;DHT22;33069;51.970;5.892;2022-10-17T11:15:41;17.00;91.60
47338;DHT22;33069;51.970;5.892;2022-10-17T11:21:08;17.20;91.50
47338;DHT22;33069;51.970;5.892;2022-10-17T11:23:39;17.40;91.30
47338;DHT22;33069;51.970;5.892;2022-10-17T11:26:22;17.20;91.00
47338;DHT22;33069;51.970;5.892;2022-10-17T11:28:55;17.40;90.90
47338;DHT22;33069;51.970;5.892;2022-10-17T11:31:27;17.40;90.80
47338;DHT22;33069;51.970;5.892;2022-10-17T11:34:10;17.30;90.70
47338;DHT22;33069;51.970;5.892;2022-10-17T11:36:39;17.30;90.60
47338;DHT22;33069;51.970;5.892;2022-10-17T11:39:15;17.20;90.50
47338;DHT22;33069;51.970;5.892;2022-10-17T11:41:48;17.40;90.70
47338;DHT22;33069;51.970;5.892;2022-10-17T11:46:47;17.40;90.70
47338;DHT22;33069;51.970;5.892;2022-10-17T11:49:18;17.30;90.60
47338;DHT22;33069;51.970;5.892;2022-10-17T11:51:59;17.30;90.60
47338;DHT22;33069;51.970;5.892;2022-10-17T11:54:44;17.30;90.60
47338;DHT22;33069;51.970;5.892;2022-10-17T12:02:29;17.60;90.70
47338;DHT22;33069;51.970;5.892;2022-10-17T12:05:18;17.40;90.50
47338;DHT22;33069;51.970;5.892;2022-10-17T12:08:03;17.50;90.40
47338;DHT22;33069;51.970;5.892;2022-10-17T12:10:42;17.70;90.30
47338;DHT22;33069;51.970;5.892;2022-10-17T12:16:35;17.50;90.10
47338;DHT22;33069;51.970;5.892;2022-10-17T12:21:27;17.50;90.10
47338;DHT22;33069;51.970;5.892;2022-10-17T12:23:54;17.50;90.10
47338;DHT22;33069;51.970;5.892;2022-10-17T12:26:25;17.50;90.00
47338;DHT22;33069;51.970;5.892;2022-10-17T12:28:51;17.40;89.90
47338;DHT22;33069;51.970;5.892;2022-10-17T12:33:49;17.50;90.30
47338;DHT22;33069;51.970;5.892;2022-10-17T12:49:43;17.50;90.50
47338;DHT22;33069;51.970;5.892;2022-10-17T12:55:05;17.50;90.30
47338;DHT22;33069;51.970;5.892;2022-10-17T12:57:57;17.70;90.40
47338;DHT22;33069;51.970;5.892;2022-10-17T13:00:32;17.90;89.90
47338;DHT22;33069;51.970;5.892;2022-10-17T13:05:41;17.60;89.10
47338;DHT22;33069;51.970;5.892;2022-10-17T13:08:15;17.80;89.50
47338;DHT22;33069;51.970;5.892;2022-10-17T13:10:44;17.80;89.30
47338;DHT22;33069;51.970;5.892;2022-10-17T13:13:43;17.90;89.20
47338;DHT22;33069;51.970;5.892;2022-10-17T13:16:30;18.00;88.90
47338;DHT22;33069;51.970;5.892;2022-10-17T13:18:57;17.90;88.80
47338;DHT22;33069;51.970;5.892;2022-10-17T13:21:24;17.80;88.60
47338;DHT22;33069;51.970;5.892;2022-10-17T13:23:50;17.80;88.60
47338;DHT22;33069;51.970;5.892;2022-10-17T13:26:23;17.80;89.00
47338;DHT22;33069;51.970;5.892;2022-10-17T13:29:08;17.70;88.70
47338;DHT22;33069;51.970;5.892;2022-10-17T13:31:37;17.80;89.20
47338;DHT22;33069;51.970;5.892;2022-10-17T13:34:06;17.90;89.00
47338;DHT22;33069;51.970;5.892;2022-10-17T13:36:38;17.80;89.10
47338;DHT22;33069;51.970;5.892;2022-10-17T13:39:08;17.70;89.30
47338;DHT22;33069;51.970;5.892;2022-10-17T13:41:35;17.80;89.10
47338;DHT22;33069;51.970;5.892;2022-10-17T13:44:03;17.70;89.30
47338;DHT22;33069;51.970;5.892;2022-10-17T13:46:33;17.80;89.00
47338;DHT22;33069;51.970;5.892;2022-10-17T13:49:15;17.80;89.00
47338;DHT22;33069;51.970;5.892;2022-10-17T13:51:48;17.70;89.00
47338;DHT22;33069;51.970;5.892;2022-10-17T13:57:02;17.80;89.20
47338;DHT22;33069;51.970;5.892;2022-10-17T13:59:37;17.70;89.20
47338;DHT22;33069;51.970;5.892;2022-10-17T14:02:04;17.50;89.30
47338;DHT22;33069;51.970;5.892;2022-10-17T14:04:37;17.60;89.50
47338;DHT22;33069;51.970;5.892;2022-10-17T14:07:03;17.70;89.20
47338;DHT22;33069;51.970;5.892;2022-10-17T14:09:31;17.60;88.90
47338;DHT22;33069;51.970;5.892;2022-10-17T14:14:28;17.70;88.90
47338;DHT22;33069;51.970;5.892;2022-10-17T14:16:54;17.70;89.10
47338;DHT22;33069;51.970;5.892;2022-10-17T14:19:30;17.80;89.20
47338;DHT22;33069;51.970;5.892;2022-10-17T14:24:47;17.70;89.00
47338;DHT22;33069;51.970;5.892;2022-10-17T14:27:51;17.60;89.10
47338;DHT22;33069;51.970;5.892;2022-10-17T14:32:58;17.70;89.30
47338;DHT22;33069;51.970;5.892;2022-10-17T14:35:25;17.70;89.00
47338;DHT22;33069;51.970;5.892;2022-10-17T14:37:52;17.70;88.80
47338;DHT22;33069;51.970;5.892;2022-10-17T14:40:24;17.70;88.70
47338;DHT22;33069;51.970;5.892;2022-10-17T14:42:52;17.90;88.90
47338;DHT22;33069;51.970;5.892;2022-10-17T14:48:11;17.80;88.20
47338;DHT22;33069;51.970;5.892;2022-10-17T14:50:39;17.80;88.60
47338;DHT22;33069;51.970;5.892;2022-10-17T14:55:54;17.90;87.90
47338;DHT22;33069;51.970;5.892;2022-10-17T14:58:27;17.90;87.80
47338;DHT22;33069;51.970;5.892;2022-10-17T15:00:53;18.10;88.00
47338;DHT22;33069;51.970;5.892;2022-10-17T15:03:19;18.00;87.70
47338;DHT22;33069;51.970;5.892;2022-10-17T15:05:46;17.80;87.80
47338;DHT22;33069;51.970;5.892;2022-10-17T15:08:17;18.00;88.10
47338;DHT22;33069;51.970;5.892;2022-10-17T15:10:44;17.70;87.80
47338;DHT22;33069;51.970;5.892;2022-10-17T15:13:11;18.00;88.10
47338;DHT22;33069;51.970;5.892;2022-10-17T15:15:38;17.90;87.80
47338;DHT22;33069;51.970;5.892;2022-10-17T15:18:04;17.70;88.10
47338;DHT22;33069;51.970;5.892;2022-10-17T15:20:31;17.70;88.30
47338;DHT22;33069;51.970;5.892;2022-10-17T15:22:59;17.70;88.60
47338;DHT22;33069;51.970;5.892;2022-10-17T15:25:26;18.10;88.30
47338;DHT22;33069;51.970;5.892;2022-10-17T15:27:53;18.00;87.50
47338;DHT22;33069;51.970;5.892;2022-10-17T15:30:30;18.10;87.60
47338;DHT22;33069;51.970;5.892;2022-10-17T15:32:57;17.70;87.50
47338;DHT22;33069;51.970;5.892;2022-10-17T15:35:24;17.70;88.10
47338;DHT22;33069;51.970;5.892;2022-10-17T15:37:50;18.00;88.40
47338;DHT22;33069;51.970;5.892;2022-10-17T15:40:25;17.90;88.40
47338;DHT22;33069;51.970;5.892;2022-10-17T15:42:53;17.90;87.70
47338;DHT22;33069;51.970;5.892;2022-10-17T15:45:21;17.80;87.90
47338;DHT22;33069;51.970;5.892;2022-10-17T15:47:55;17.80;88.00
47338;DHT22;33069;51.970;5.892;2022-10-17T15:50:23;18.00;88.10
47338;DHT22;33069;51.970;5.892;2022-10-17T15:52:49;17.90;87.70
47338;DHT22;33069;51.970;5.892;2022-10-17T15:55:18;18.10;87.50
47338;DHT22;33069;51.970;5.892;2022-10-17T15:57:45;18.00;87.50
47338;DHT22;33069;51.970;5.892;2022-10-17T16:00:20;18.00;87.10
47338;DHT22;33069;51.970;5.892;2022-10-17T16:02:46;17.80;87.20
47338;DHT22;33069;51.970;5.892;2022-10-17T16:05:24;17.90;87.80
47338;DHT22;33069;51.970;5.892;2022-10-17T16:07:51;18.00;87.70
47338;DHT22;33069;51.970;5.892;2022-10-17T16:10:18;17.90;87.50
47338;DHT22;33069;51.970;5.892;2022-10-17T16:12:44;17.70;87.60
47338;DHT22;33069;51.970;5.892;2022-10-17T16:15:18;17.60;88.00
47338;DHT22;33069;51.970;5.892;2022-10-17T16:17:44;17.70;88.30
47338;DHT22;33069;51.970;5.892;2022-10-17T16:20:13;17.70;88.30
47338;DHT22;33069;51.970;5.892;2022-10-17T16:22:41;17.30;88.00
47338;DHT22;33069;51.970;5.892;2022-10-17T16:25:23;17.60;88.80
47338;DHT22;33069;51.970;5.892;2022-10-17T16:27:51;17.50;88.30
47338;DHT22;33069;51.970;5.892;2022-10-17T16:30:18;17.40;88.30
47338;DHT22;33069;51.970;5.892;2022-10-17T16:32:44;17.50;88.80
47338;DHT22;33069;51.970;5.892;2022-10-17T16:35:17;17.50;88.70
47338;DHT22;33069;51.970;5.892;2022-10-17T16:37:43;17.30;88.50
47338;DHT22;33069;51.970;5.892;2022-10-17T16:40:10;17.20;88.60
47338;DHT22;33069;51.970;5.892;2022-10-17T16:42:36;17.20;88.80
47338;DHT22;33069;51.970;5.892;2022-10-17T16:45:02;17.10;89.00
47338;DHT22;33069;51.970;5.892;2022-10-17T16:47:28;17.20;89.30
47338;DHT22;33069;51.970;5.892;2022-10-17T16:49:54;17.10;89.20
47338;DHT22;33069;51.970;5.892;2022-10-17T16:52:20;17.20;89.40
47338;DHT22;33069;51.970;5.892;2022-10-17T16:54:45;17.10;89.30
47338;DHT22;33069;51.970;5.892;2022-10-17T16:57:11;17.20;89.30
47338;DHT22;33069;51.970;5.892;2022-10-17T16:59:37;17.00;89.20
47338;DHT22;33069;51.970;5.892;2022-10-17T17:02:03;17.20;89.50
47338;DHT22;33069;51.970;5.892;2022-10-17T17:04:28;17.00;89.40
47338;DHT22;33069;51.970;5.892;2022-10-17T17:06:54;17.30;89.60
47338;DHT22;33069;51.970;5.892;2022-10-17T17:09:20;17.10;89.40
47338;DHT22;33069;51.970;5.892;2022-10-17T17:11:46;17.00;89.50
47338;DHT22;33069;51.970;5.892;2022-10-17T17:14:13;17.30;89.60
47338;DHT22;33069;51.970;5.892;2022-10-17T17:16:39;17.20;89.40
47338;DHT22;33069;51.970;5.892;2022-10-17T17:19:07;17.30;89.30
47338;DHT22;33069;51.970;5.892;2022-10-17T17:21:34;17.10;89.20
47338;DHT22;33069;51.970;5.892;2022-10-17T17:24:01;17.10;89.40
47338;DHT22;33069;51.970;5.892;2022-10-17T17:26:29;17.20;89.50
47338;DHT22;33069;51.970;5.892;2022-10-17T17:28:58;17.10;89.50
47338;DHT22;33069;51.970;5.892;2022-10-17T17:31:26;17.00;89.40
47338;DHT22;33069;51.970;5.892;2022-10-17T17:33:53;17.20;89.40
47338;DHT22;33069;51.970;5.892;2022-10-17T17:36:21;17.00;89.20
47338;DHT22;33069;51.970;5.892;2022-10-17T17:38:48;16.80;89.20
47338;DHT22;33069;51.970;5.892;2022-10-17T17:41:16;17.00;89.50
47338;DHT22;33069;51.970;5.892;2022-10-17T17:43:43;17.00;89.40
47338;DHT22;33069;51.970;5.892;2022-10-17T17:46:09;16.80;89.40
47338;DHT22;33069;51.970;5.892;2022-10-17T17:48:39;16.90;89.70
47338;DHT22;33069;51.970;5.892;2022-10-17T17:51:06;16.80;89.60
47338;DHT22;33069;51.970;5.892;2022-10-17T17:53:33;16.70;89.60